Time;durP1;ratioP1;P1;durP2;ratioP2;P2;SDS_P1;SDS_P2;PMS_P1;PMS_P2;Temp;Humidity;BMP_temperature;BMP_pressure;BME280_temperature;BME280_humidity;BME280_pressure;Samples;Min_cycle;Max_cycle;Signal;HPM_P1;HPM_P2
2021/05/10 00:02:23;;;;;;;2.57;1.77;;;;;;;13.29;55.85;100384.41;255515;1104;114243;-70
2021/05/10 00:07:25;;;;;;;3.17;1.57;;;;;;;13.22;56.07;100378.48;255403;1104;128632;-71
2021/05/10 00:12:27;;;;;;;1.40;1.28;;;;;;;13.13;56.69;100378.98;255781;1104;114572;-72
2021/05/10 00:17:29;;;;;;;3.25;2.23;;;;;;;13.02;56.53;100388.41;255457;1104;114356;-71
2021/05/10 00:22:31;;;;;;;2.10;2.00;;;;;;;12.93;57.04;100388.00;255441;1104;114451;-71
2021/05/10 00:27:34;;;;;;;2.93;1.93;;;;;;;12.95;57.21;100396.83;255940;1099;114270;-72
2021/05/10 00:32:36;;;;;;;1.80;1.68;;;;;;;12.84;57.86;100395.53;256084;1104;114282;-73
2021/05/10 00:37:38;;;;;;;2.28;2.03;;;;;;;12.72;58.82;100382.77;255448;1100;114335;-71
2021/05/10 00:42:40;;;;;;;3.70;1.65;;;;;;;12.71;58.56;100383.71;255548;1104;114258;-72
2021/05/10 00:47:43;;;;;;;2.40;2.15;;;;;;;12.70;59.22;100384.65;255511;1099;114367;-71
2021/05/10 00:52:46;;;;;;;3.20;1.90;;;;;;;12.62;59.67;100384.15;255540;1104;114270;-71
2021/05/10 00:57:55;;;;;;;1.98;1.48;;;;;;;12.55;59.33;100376.44;255428;1099;114313;-71
2021/05/10 01:03:03;;;;;;;1.70;1.60;;;;;;;12.48;59.08;100377.67;255658;1104;114608;-71
2021/05/10 01:08:07;;;;;;;3.63;1.88;;;;;;;12.49;59.77;100381.23;255552;1105;114409;-72
2021/05/10 01:13:09;;;;;;;2.18;1.65;;;;;;;12.41;60.02;100376.23;255538;1100;114535;-71
2021/05/10 01:18:11;;;;;;;1.85;1.73;;;;;;;12.22;62.02;100371.77;255515;1104;114165;-73
2021/05/10 01:23:14;;;;;;;1.85;1.55;;;;;;;12.26;61.86;100373.34;255685;1104;114291;-71
2021/05/10 01:28:16;;;;;;;2.10;1.75;;;;;;;12.12;62.12;100359.80;255469;1104;114242;-71
2021/05/10 01:33:20;;;;;;;3.65;1.83;;;;;;;12.11;61.76;100369.60;255015;1100;114508;-70
2021/05/10 01:38:22;;;;;;;1.83;1.67;;;;;;;12.07;63.24;100372.48;255243;1100;114591;-73
2021/05/10 01:43:24;;;;;;;1.45;1.35;;;;;;;12.10;64.30;100372.36;259276;1106;114150;-72
2021/05/10 01:48:26;;;;;;;1.87;1.40;;;;;;;11.93;63.89;100384.65;255009;1106;114262;-72
2021/05/10 01:53:28;;;;;;;1.88;1.68;;;;;;;11.92;64.50;100388.25;254399;1100;114366;-71
2021/05/10 01:58:31;;;;;;;2.30;2.10;;;;;;;11.98;64.14;100392.48;254454;1100;115644;-72
2021/05/10 02:03:33;;;;;;;2.28;2.08;;;;;;;11.82;64.68;100394.97;255839;1104;114528;-72
2021/05/10 02:08:35;;;;;;;1.83;1.70;;;;;;;11.86;64.28;100399.22;255441;1100;114247;-72
2021/05/10 02:13:37;;;;;;;2.13;1.93;;;;;;;11.80;64.65;100408.37;255651;1099;115312;-72
2021/05/10 02:18:39;;;;;;;1.65;1.55;;;;;;;11.63;65.49;100401.11;255462;1100;114397;-71
2021/05/10 02:23:41;;;;;;;1.65;1.53;;;;;;;11.58;65.77;100408.47;255463;1104;114246;-71
2021/05/10 02:28:43;;;;;;;1.93;1.83;;;;;;;11.53;66.23;100414.93;255401;1104;114227;-72
2021/05/10 02:33:45;;;;;;;2.25;1.80;;;;;;;11.27;67.29;100415.16;255506;1104;114371;-71
2021/05/10 02:38:47;;;;;;;3.35;2.13;;;;;;;11.29;68.00;100418.59;255700;1100;114184;-75
2021/05/10 02:43:49;;;;;;;2.70;2.30;;;;;;;11.34;68.28;100414.89;255844;1104;114209;-76
2021/05/10 02:48:51;;;;;;;3.40;2.10;;;;;;;11.31;68.47;100416.73;256739;1100;114239;-73
2021/05/10 02:53:53;;;;;;;2.58;2.03;;;;;;;11.28;68.57;100422.20;261880;1104;114186;-74
2021/05/10 02:58:56;;;;;;;3.23;2.20;;;;;;;11.09;69.06;100421.24;255801;1104;114281;-76
2021/05/10 03:03:59;;;;;;;3.15;2.25;;;;;;;10.98;69.21;100424.35;256248;1100;114198;-78
2021/05/10 03:09:01;;;;;;;2.85;1.93;;;;;;;11.06;69.36;100424.05;256419;1100;114137;-77
2021/05/10 03:14:03;;;;;;;2.60;1.98;;;;;;;11.13;69.67;100433.54;256392;1099;115117;-76
2021/05/10 03:19:09;;;;;;;4.58;2.20;;;;;;;10.99;69.43;100436.77;256729;1100;114418;-77
2021/05/10 03:24:12;;;;;;;2.65;2.10;;;;;;;10.83;68.99;100447.20;256042;1099;114441;-76
2021/05/10 03:29:14;;;;;;;3.13;2.03;;;;;;;10.93;68.36;100453.02;255460;1104;114355;-78
2021/05/10 03:34:16;;;;;;;2.35;2.15;;;;;;;10.94;67.63;100455.62;255190;1100;114317;-77
2021/05/10 03:39:18;;;;;;;3.10;2.03;;;;;;;10.97;68.41;100452.84;255430;1107;114587;-75
2021/05/10 03:44:20;;;;;;;2.30;1.98;;;;;;;10.90;68.11;100466.47;256087;1103;114253;-76
2021/05/10 03:49:23;;;;;;;2.40;2.15;;;;;;;11.00;68.78;100455.36;256441;1107;114412;-79
2021/05/10 03:54:25;;;;;;;2.43;2.18;;;;;;;11.02;68.27;100467.77;256326;1102;114642;-79
2021/05/10 03:59:27;;;;;;;1.90;1.80;;;;;;;11.12;67.69;100470.00;256507;1106;114371;-78
2021/05/10 04:04:36;;;;;;;2.65;2.30;;;;;;;11.09;67.56;100463.92;260381;1107;114388;-77
2021/05/10 04:14:59;;;;;;;2.55;2.20;;;;;;;11.18;66.98;100468.00;256239;1104;114094;-78
2021/05/10 04:20:01;;;;;;;2.70;2.28;;;;;;;11.28;68.11;100472.89;258805;1100;114039;-79
2021/05/10 04:25:03;;;;;;;4.10;2.50;;;;;;;11.38;66.93;100464.52;257156;1100;114284;-82
2021/05/10 04:30:06;;;;;;;2.63;1.83;;;;;;;11.38;66.61;100470.73;256072;1100;114406;-79
2021/05/10 04:35:09;;;;;;;2.93;2.38;;;;;;;11.47;68.27;100475.66;258592;1105;114390;-79
2021/05/10 04:40:12;;;;;;;2.70;2.50;;;;;;;11.56;68.34;100466.39;259321;1100;114458;-78
2021/05/10 04:45:15;;;;;;;2.33;2.10;;;;;;;11.64;66.12;100461.59;256336;1104;114350;-76
2021/05/10 04:50:17;;;;;;;4.20;2.20;;;;;;;11.67;66.53;100459.73;256476;1104;114202;-79
2021/05/10 04:55:19;;;;;;;2.53;2.33;;;;;;;11.83;65.55;100467.94;255330;1100;114280;-78
2021/05/10 05:00:22;;;;;;;4.30;2.10;;;;;;;11.92;64.68;100471.06;255466;1100;114360;-79
2021/05/10 05:05:24;;;;;;;2.73;2.35;;;;;;;12.08;65.13;100465.06;255433;1106;114302;-79
2021/05/10 05:10:27;;;;;;;4.03;2.53;;;;;;;12.20;64.18;100464.50;255967;1107;114281;-81
2021/05/10 05:15:29;;;;;;;2.83;1.65;;;;;;;12.32;63.13;100456.88;255266;1100;114256;-78
2021/05/10 05:20:36;;;;;;;3.18;2.15;;;;;;;12.44;63.72;100466.99;255134;1100;114633;-80
2021/05/10 05:25:38;;;;;;;4.70;2.30;;;;;;;12.50;61.42;100449.81;255869;1100;114131;-79
2021/05/10 05:30:41;;;;;;;1.93;1.58;;;;;;;12.64;62.25;100459.83;255909;1100;114334;-79
2021/05/10 05:35:43;;;;;;;2.78;1.85;;;;;;;12.75;60.62;100469.08;256072;1100;114410;-78
2021/05/10 05:40:46;;;;;;;2.78;1.88;;;;;;;12.87;61.17;100467.63;255870;1106;114344;-79
2021/05/10 05:45:48;;;;;;;2.95;1.90;;;;;;;13.02;61.18;100467.83;257544;1100;114990;-78
2021/05/10 05:50:50;;;;;;;3.95;1.75;;;;;;;13.20;60.02;100468.73;255701;1107;114429;-80
2021/05/10 05:55:53;;;;;;;3.80;2.10;;;;;;;13.06;62.43;100461.36;256535;1106;114239;-79
2021/05/10 06:00:55;;;;;;;2.70;2.28;;;;;;;13.27;61.44;100455.88;257948;1104;113967;-80
2021/05/10 06:05:57;;;;;;;2.70;1.80;;;;;;;13.54;59.87;100446.48;256529;1107;114224;-79
2021/05/10 06:11:01;;;;;;;3.23;1.93;;;;;;;13.73;59.72;100463.41;255374;1102;114637;-80
2021/05/10 06:16:04;;;;;;;2.88;1.85;;;;;;;13.89;59.17;100464.34;255047;1106;114574;-80
2021/05/10 06:21:07;;;;;;;2.47;1.77;;;;;;;14.04;58.57;100457.30;255159;1107;114298;-79
2021/05/10 06:26:09;;;;;;;3.28;2.00;;;;;;;14.16;57.69;100467.38;255173;1100;114584;-79
2021/05/10 06:31:11;;;;;;;2.20;2.08;;;;;;;14.32;57.10;100467.41;255087;1106;114667;-79
2021/05/10 06:36:13;;;;;;;6.95;1.90;;;;;;;14.44;56.19;100460.52;255205;1100;114576;-81
2021/05/10 06:41:15;;;;;;;3.33;2.03;;;;;;;14.48;56.71;100451.33;255208;1100;114689;-79
2021/05/10 06:46:18;;;;;;;2.95;2.48;;;;;;;14.39;58.30;100449.14;255349;1106;114316;-79
2021/05/10 06:51:20;;;;;;;3.75;2.05;;;;;;;14.79;56.57;100457.70;255452;1100;114201;-80
2021/05/10 06:56:23;;;;;;;4.10;2.45;;;;;;;14.76;57.00;100449.81;255465;1100;114508;-80
2021/05/10 07:01:25;;;;;;;1.98;1.88;;;;;;;15.06;55.30;100446.33;255837;1106;114255;-81
2021/05/10 07:06:27;;;;;;;1.98;1.75;;;;;;;14.88;56.92;100447.38;256069;1107;114412;-80
2021/05/10 07:11:30;;;;;;;1.80;1.60;;;;;;;15.18;55.02;100454.61;256044;1106;114514;-81
2021/05/10 07:16:35;;;;;;;2.73;1.58;;;;;;;15.56;52.94;100438.06;256400;1100;114253;-78
2021/05/10 07:21:38;;;;;;;2.73;1.60;;;;;;;15.71;52.51;100439.83;255382;1106;114306;-80
2021/05/10 07:26:40;;;;;;;1.53;1.43;;;;;;;15.90;52.15;100426.13;255457;1100;114649;-80
2021/05/10 07:31:44;;;;;;;3.48;1.43;;;;;;;16.08;51.40;100424.12;261924;1107;114078;-79
2021/05/10 07:36:46;;;;;;;1.98;1.78;;;;;;;16.24;50.76;100420.47;257179;1104;114452;-79
2021/05/10 07:41:48;;;;;;;2.98;1.65;;;;;;;16.25;51.33;100427.58;255317;1107;114503;-77
2021/05/10 07:46:50;;;;;;;3.78;1.78;;;;;;;16.25;53.28;100425.74;255490;1100;114164;-78
2021/05/10 07:51:52;;;;;;;3.63;2.20;;;;;;;16.16;53.53;100418.28;255320;1100;114312;-78
2021/05/10 07:56:56;;;;;;;1.90;1.65;;;;;;;16.87;49.38;100415.53;255376;1107;114267;-79
2021/05/10 08:01:59;;;;;;;3.73;1.60;;;;;;;16.96;48.89;100417.66;255562;1107;114083;-82
2021/05/10 08:07:02;;;;;;;3.23;1.55;;;;;;;17.08;48.20;100412.41;256194;1100;114252;-78
2021/05/10 08:12:04;;;;;;;4.40;1.38;;;;;;;17.20;46.05;100416.95;255780;1107;114448;-81
2021/05/10 08:17:07;;;;;;;2.00;1.40;;;;;;;17.11;46.87;100404.98;255892;1100;114733;-83
2021/05/10 08:22:09;;;;;;;2.90;1.25;;;;;;;17.46;45.66;100398.17;256489;1107;114504;-80
2021/05/10 08:27:11;;;;;;;1.47;1.20;;;;;;;17.59;46.26;100417.03;255446;1100;114404;-79
2021/05/10 08:32:13;;;;;;;1.23;1.13;;;;;;;17.68;45.76;100402.92;255305;1100;114268;-80
2021/05/10 08:37:16;;;;;;;2.80;1.10;;;;;;;17.88;44.35;100401.53;258353;1105;114156;-83
2021/05/10 08:42:19;;;;;;;1.35;1.10;;;;;;;18.16;44.78;100388.80;257290;1104;114216;-80
2021/05/10 08:47:31;;;;;;;2.30;1.40;;;;;;;18.23;44.53;100383.81;256132;1100;114240;-78
2021/05/10 08:52:34;;;;;;;2.63;1.30;;;;;;;18.24;45.53;100394.52;256094;1100;114243;-79
2021/05/10 08:57:36;;;;;;;1.60;1.05;;;;;;;18.36;44.10;100390.03;256120;1100;114242;-80
2021/05/10 09:02:40;;;;;;;2.70;1.30;;;;;;;18.60;43.64;100395.50;256268;1100;114668;-82
2021/05/10 09:07:43;;;;;;;2.15;0.93;;;;;;;18.86;41.40;100381.89;255721;1105;114504;-81
2021/05/10 09:12:52;;;;;;;2.55;1.43;;;;;;;19.02;42.91;100375.36;256481;1104;114569;-81
2021/05/10 09:17:57;;;;;;;3.05;1.15;;;;;;;19.09;41.73;100382.88;256241;1104;114213;-79
2021/05/10 09:23:09;;;;;;;2.07;1.13;;;;;;;19.47;39.95;100380.89;256536;1104;114193;-78
2021/05/10 09:28:14;;;;;;;2.58;1.20;;;;;;;19.74;39.66;100374.30;255704;1100;114264;-79
2021/05/10 09:33:24;;;;;;;2.05;1.53;;;;;;;19.67;40.99;100367.66;256102;1100;114259;-81
2021/05/10 09:38:29;;;;;;;5.58;1.18;;;;;;;19.86;40.49;100364.39;255911;1104;115036;-80
2021/05/10 09:43:35;;;;;;;;;;;;;;;20.18;39.58;100352.84;256530;1104;114166;-78
2021/05/10 09:48:39;;;;;;;2.13;1.43;;;;;;;20.33;39.42;100353.42;256030;1104;103121;-81
2021/05/10 09:53:53;;;;;;;1.00;0.95;;;;;;;20.47;39.65;100358.56;255544;1107;114285;-81
2021/05/10 09:59:00;;;;;;;;;;;;;;;20.47;39.71;100347.73;255625;1100;114350;-80
2021/05/10 10:04:02;;;;;;;2.98;1.18;;;;;;;20.65;40.47;100350.77;256452;1104;103079;-80
2021/05/10 10:09:06;;;;;;;1.70;1.10;;;;;;;20.75;39.87;100345.46;255946;1100;114324;-80
2021/05/10 10:14:10;;;;;;;2.40;1.03;;;;;;;20.76;39.94;100347.19;255281;1107;114597;-79
2021/05/10 10:19:12;;;;;;;1.40;1.05;;;;;;;20.80;38.86;100348.64;255559;1105;114236;-78
2021/05/10 10:24:17;;;;;;;0.85;0.85;;;;;;;20.97;39.33;100339.08;256496;1100;114642;-80
2021/05/10 10:29:26;;;;;;;3.90;1.10;;;;;;;21.10;38.29;100347.04;260710;1100;114171;-79
2021/05/10 10:34:35;;;;;;;1.83;1.33;;;;;;;21.28;38.70;100341.05;257702;1104;115078;-79
2021/05/10 10:39:49;;;;;;;1.43;1.33;;;;;;;21.44;38.68;100346.84;256475;1100;114789;-80
2021/05/10 10:45:01;;;;;;;2.65;2.00;;;;;;;21.49;39.66;100344.61;256341;1104;114327;-81
2021/05/10 10:50:04;;;;;;;1.55;1.45;;;;;;;21.73;37.36;100346.18;256568;1100;114501;-79
2021/05/10 10:55:13;;;;;;;2.45;0.95;;;;;;;21.85;36.64;100359.67;257294;1104;115011;-78
2021/05/10 11:00:18;;;;;;;2.20;1.73;;;;;;;22.01;37.84;100343.73;256373;1107;114492;-84
2021/05/10 11:05:24;;;;;;;3.55;2.00;;;;;;;22.12;36.29;100346.36;255463;1100;114282;-79
2021/05/10 11:10:51;;;;;;;4.58;1.95;;;;;;;22.33;37.33;100330.97;255777;1100;114280;-80
2021/05/10 11:15:55;;;;;;;2.08;1.50;;;;;;;22.70;35.64;100312.17;256486;1100;114260;-79
2021/05/10 11:20:57;;;;;;;3.23;1.50;;;;;;;22.85;34.24;100331.65;256326;1104;114245;-79
2021/05/10 11:26:05;;;;;;;2.50;1.20;;;;;;;23.18;32.91;100325.95;256336;1100;114113;-80
2021/05/10 11:31:13;;;;;;;3.68;1.93;;;;;;;23.69;33.38;100313.77;256187;1100;114665;-82
2021/05/10 11:36:25;;;;;;;1.40;1.10;;;;;;;23.92;31.22;100293.50;255970;1100;114207;-84
2021/05/10 11:41:36;;;;;;;1.23;0.97;;;;;;;23.81;32.19;100294.55;256188;1104;114233;-81
2021/05/10 11:46:50;;;;;;;1.27;0.73;;;;;;;23.71;32.56;100284.55;256147;1100;114340;-80
2021/05/10 11:51:54;;;;;;;2.70;1.18;;;;;;;23.49;33.03;100287.64;256200;1099;114299;-80
2021/05/10 11:56:59;;;;;;;1.57;1.10;;;;;;;23.35;32.55;100284.39;256363;1104;114265;-80
2021/05/10 12:02:03;;;;;;;6.90;1.13;;;;;;;24.24;31.59;100279.45;255924;1105;114787;-81
2021/05/10 12:07:06;;;;;;;;;;;;;;;24.00;31.63;100260.94;256459;1104;114398;-82
2021/05/10 12:12:14;;;;;;;3.55;2.88;;;;;;;24.46;31.87;100266.37;255781;1104;103161;-82
2021/05/10 12:17:27;;;;;;;2.73;1.55;;;;;;;24.17;32.54;100257.41;255298;1107;114283;-83
2021/05/10 12:22:35;;;;;;;5.33;2.20;;;;;;;23.82;31.52;100244.56;255629;1100;114773;-84
2021/05/10 12:27:37;;;;;;;2.10;1.40;;;;;;;23.68;31.90;100257.63;256687;1104;114297;-82
2021/05/10 12:32:41;;;;;;;2.40;2.20;;;;;;;23.83;33.01;100243.53;256875;1104;114370;-84
2021/05/10 12:37:46;;;;;;;0.88;0.80;;;;;;;23.95;30.73;100258.70;256397;1100;114203;-83
2021/05/10 12:43:18;;;;;;;1.40;1.00;;;;;;;23.97;32.35;100236.77;256352;1100;114486;-82
2021/05/10 12:48:21;;;;;;;3.00;1.30;;;;;;;23.92;31.73;100256.23;256274;1099;114356;-80
2021/05/10 12:53:52;;;;;;;5.53;1.73;;;;;;;23.97;32.81;100218.55;256460;1104;114489;-83
2021/05/10 12:59:00;;;;;;;2.88;1.45;;;;;;;23.93;33.18;100238.09;255693;1107;114283;-83
2021/05/10 13:04:06;;;;;;;6.10;2.60;;;;;;;24.25;34.25;100245.73;256472;1104;114089;-81
2021/05/10 13:09:22;;;;;;;1.55;1.15;;;;;;;24.23;32.69;100253.23;258077;1104;114233;-81
2021/05/10 13:35:41;;;;;;;4.03;1.55;;;;;;;24.80;32.72;100225.67;260810;1100;114204;-83
2021/05/10 13:40:44;;;;;;;1.75;1.60;;;;;;;24.78;32.28;100229.58;257207;1104;114492;-82
2021/05/10 13:45:47;;;;;;;3.33;1.20;;;;;;;24.55;32.22;100230.03;256495;1100;114347;-81
2021/05/10 13:50:49;;;;;;;1.70;1.40;;;;;;;24.74;32.49;100226.31;256745;1104;114174;-80
2021/05/10 13:55:51;;;;;;;2.10;1.37;;;;;;;24.70;31.79;100229.50;256882;1100;114279;-82
2021/05/10 14:00:53;;;;;;;3.03;1.07;;;;;;;24.87;31.53;100215.00;256490;1099;114333;-84
2021/05/10 14:05:55;;;;;;;2.20;1.30;;;;;;;25.22;30.43;100223.23;256631;1104;114241;-82
2021/05/10 14:10:58;;;;;;;5.83;1.40;;;;;;;25.47;31.99;100220.69;256663;1104;114212;-80
2021/05/10 14:16:01;;;;;;;5.43;4.30;;;;;;;25.56;31.68;100225.14;256856;1100;114390;-79
2021/05/10 14:26:24;;;;;;;3.90;1.20;;;;;;;25.90;28.31;100219.66;257945;1100;114474;-79
2021/05/10 14:31:27;;;;;;;1.58;1.48;;;;;;;26.02;29.96;100208.41;259142;1099;114553;-80
2021/05/10 14:36:29;;;;;;;5.27;1.57;;;;;;;25.68;30.90;100202.02;257378;1100;114353;-79
2021/05/10 14:41:31;;;;;;;3.13;1.53;;;;;;;25.88;31.31;100207.20;256616;1099;114375;-80
2021/05/10 14:46:34;;;;;;;2.88;1.53;;;;;;;25.46;30.63;100195.25;256508;1099;114267;-81
2021/05/10 14:51:36;;;;;;;4.10;1.50;;;;;;;25.54;31.43;100194.45;256504;1099;114231;-79
2021/05/10 14:56:40;;;;;;;1.87;1.50;;;;;;;25.30;31.56;100188.66;256321;1104;114403;-79
2021/05/10 15:01:42;;;;;;;2.65;1.60;;;;;;;25.26;31.77;100180.99;256351;1105;114544;-80
2021/05/10 15:06:44;;;;;;;2.93;1.58;;;;;;;25.27;30.59;100180.82;256832;1104;114328;-80
2021/05/10 15:11:47;;;;;;;2.90;1.88;;;;;;;25.64;30.73;100177.95;256463;1104;114238;-79
2021/05/10 15:16:49;;;;;;;2.93;1.73;;;;;;;25.84;31.01;100190.30;256477;1104;114787;-81
2021/05/10 15:21:51;;;;;;;2.45;2.03;;;;;;;26.38;30.68;100187.19;256104;1104;114240;-83
2021/05/10 15:26:53;;;;;;;2.50;1.80;;;;;;;26.17;32.02;100205.94;256166;1104;114588;-81
2021/05/10 15:31:56;;;;;;;4.30;2.07;;;;;;;26.47;29.94;100179.84;256386;1100;114223;-83
2021/05/10 15:36:58;;;;;;;3.18;1.75;;;;;;;26.54;28.86;100174.52;256860;1105;114554;-79
2021/05/10 15:42:00;;;;;;;4.78;1.98;;;;;;;26.53;29.76;100192.81;256740;1104;114259;-80
2021/05/10 15:47:02;;;;;;;2.73;1.40;;;;;;;25.75;29.97;100180.36;257092;1104;114228;-83
2021/05/10 15:52:04;;;;;;;2.10;1.63;;;;;;;26.57;28.74;100177.77;257002;1104;114904;-80
2021/05/10 15:57:06;;;;;;;1.68;1.30;;;;;;;26.16;28.80;100174.18;256753;1100;114342;-84
2021/05/10 16:02:09;;;;;;;3.23;1.50;;;;;;;25.39;29.88;100180.55;256807;1104;114272;-79
2021/05/10 16:07:11;;;;;;;4.23;1.75;;;;;;;25.02;30.16;100181.71;257924;1099;114060;-71
2021/05/10 16:12:13;;;;;;;2.70;1.43;;;;;;;24.73;30.76;100191.05;256576;1104;114219;-77
2021/05/10 16:17:16;;;;;;;3.28;1.90;;;;;;;24.59;31.63;100190.58;256193;1104;114517;-78
2021/05/10 16:22:19;;;;;;;3.08;2.18;;;;;;;24.55;31.91;100204.66;256249;1100;114479;-77
2021/05/10 16:27:23;;;;;;;1.48;1.25;;;;;;;24.68;32.11;100198.82;256115;1104;114285;-77
2021/05/10 16:32:25;;;;;;;4.23;1.78;;;;;;;24.66;31.47;100201.71;255150;1106;114508;-81
2021/05/10 16:37:27;;;;;;;2.75;1.65;;;;;;;24.63;31.65;100207.46;258991;1099;114263;-79
2021/05/10 16:42:29;;;;;;;1.70;1.60;;;;;;;24.51;32.08;100199.52;256736;1105;114314;-77
2021/05/10 16:47:32;;;;;;;2.87;1.73;;;;;;;24.43;32.85;100193.98;255496;1100;114604;-83
2021/05/10 16:52:36;;;;;;;3.18;1.48;;;;;;;24.17;32.52;100202.11;255650;1100;114779;-80
2021/05/10 16:57:39;;;;;;;2.98;1.65;;;;;;;24.03;33.16;100201.60;255645;1100;114607;-80
2021/05/10 17:02:41;;;;;;;2.10;1.53;;;;;;;23.88;34.12;100206.69;255794;1107;114197;-77
2021/05/10 17:07:43;;;;;;;2.85;1.33;;;;;;;23.90;33.76;100206.53;255343;1107;114355;-78
2021/05/10 17:12:45;;;;;;;2.40;1.43;;;;;;;23.77;33.93;100201.47;255239;1106;114358;-79
2021/05/10 17:17:48;;;;;;;2.28;1.65;;;;;;;23.59;34.17;100212.30;255026;1106;114602;-79
2021/05/10 17:22:50;;;;;;;2.15;1.68;;;;;;;23.42;34.69;100213.08;255247;1106;114434;-81
2021/05/10 17:27:52;;;;;;;1.60;1.50;;;;;;;23.32;34.95;100219.44;255617;1107;114636;-80
2021/05/10 17:32:54;;;;;;;2.55;1.90;;;;;;;23.12;35.40;100213.16;255290;1100;114406;-78
2021/05/10 17:37:58;;;;;;;2.60;1.60;;;;;;;23.02;35.13;100215.91;255505;1107;114236;-76
2021/05/10 17:43:02;;;;;;;1.48;1.30;;;;;;;23.01;35.96;100216.91;255577;1100;114237;-79
2021/05/10 17:48:05;;;;;;;1.70;1.50;;;;;;;22.83;35.79;100229.54;255510;1106;114570;-75
2021/05/10 17:53:07;;;;;;;3.18;1.58;;;;;;;22.67;36.55;100228.27;255614;1105;114406;-77
2021/05/10 17:58:09;;;;;;;3.20;1.78;;;;;;;22.61;36.07;100234.28;255931;1100;114412;-78
2021/05/10 18:03:22;;;;;;;1.50;1.40;;;;;;;22.55;36.58;100238.41;255123;1107;114283;-76
2021/05/10 18:08:25;;;;;;;2.15;1.30;;;;;;;22.41;36.78;100249.70;255276;1100;114276;-77
2021/05/10 18:13:27;;;;;;;3.05;1.60;;;;;;;22.35;37.11;100248.37;255663;1099;114281;-76
2021/05/10 18:18:39;;;;;;;1.60;1.40;;;;;;;22.27;37.29;100251.80;255374;1104;114397;-80
2021/05/10 18:23:41;;;;;;;1.48;1.33;;;;;;;22.20;37.48;100255.23;255303;1100;114481;-77
2021/05/10 18:28:45;;;;;;;1.50;1.40;;;;;;;22.07;37.41;100256.33;255130;1100;114263;-77
2021/05/10 18:33:47;;;;;;;1.43;1.33;;;;;;;21.99;36.98;100253.44;255840;1100;114000;-77
2021/05/10 18:38:49;;;;;;;1.73;1.58;;;;;;;21.91;37.85;100266.88;255179;1102;114150;-75
2021/05/10 18:43:52;;;;;;;4.43;1.70;;;;;;;21.83;38.09;100258.56;255246;1100;114378;-74
2021/05/10 18:48:58;;;;;;;2.73;1.60;;;;;;;21.71;37.71;100250.50;255315;1100;114332;-75
2021/05/10 18:54:01;;;;;;;2.08;1.80;;;;;;;21.59;38.47;100262.45;255776;1100;114319;-75
2021/05/10 18:59:03;;;;;;;3.18;1.75;;;;;;;21.43;39.17;100274.62;255399;1102;115404;-78
2021/05/10 19:04:06;;;;;;;4.00;2.18;;;;;;;21.29;39.62;100277.67;255184;1107;114231;-77
2021/05/10 19:09:08;;;;;;;2.83;2.10;;;;;;;21.13;40.41;100273.62;255165;1100;114127;-77
2021/05/10 19:14:10;;;;;;;3.07;2.10;;;;;;;20.91;41.42;100284.58;255280;1105;114424;-78
2021/05/10 19:19:13;;;;;;;4.98;2.40;;;;;;;20.72;41.97;100278.03;256010;1105;114234;-79
2021/05/10 19:24:15;;;;;;;3.60;2.65;;;;;;;20.59;42.60;100269.16;254999;1100;114328;-78
2021/05/10 19:29:19;;;;;;;3.95;2.65;;;;;;;20.51;42.86;100269.82;255091;1100;114311;-75
2021/05/10 19:34:21;;;;;;;;;;;;;;;20.42;43.30;100274.16;255671;1100;114245;-77
2021/05/10 19:39:24;;;;;;;3.45;2.28;;;;;;;20.27;44.25;100281.70;255669;1105;103164;-78
2021/05/10 19:44:28;;;;;;;3.88;2.20;;;;;;;20.28;44.00;100287.98;260339;1100;114415;-78
2021/05/10 20:05:18;;;;;;;4.58;2.88;;;;;;;20.04;45.09;100278.19;255201;1100;114761;-72
2021/05/10 20:10:21;;;;;;;4.40;2.83;;;;;;;19.95;45.60;100276.22;255542;1104;114291;-75
2021/05/10 20:15:24;;;;;;;3.88;3.20;;;;;;;20.01;45.05;100281.16;256086;1100;114392;-77
2021/05/10 20:20:26;;;;;;;4.45;2.75;;;;;;;20.05;44.54;100278.05;255343;1100;114355;-76
2021/05/10 20:25:28;;;;;;;3.43;2.55;;;;;;;20.04;44.44;100275.48;255792;1107;114328;-76
2021/05/10 20:30:30;;;;;;;4.78;2.70;;;;;;;20.04;44.32;100291.71;256555;1100;114378;-76
2021/05/10 20:35:32;;;;;;;3.18;2.70;;;;;;;19.99;44.68;100288.53;256738;1105;114267;-76
2021/05/10 20:40:35;;;;;;;6.05;3.08;;;;;;;19.88;45.21;100282.13;256982;1105;114343;-76
2021/05/10 20:45:40;;;;;;;3.13;2.35;;;;;;;19.99;44.96;100288.53;255386;1100;114467;-76
2021/05/10 20:50:42;;;;;;;4.33;2.57;;;;;;;19.87;44.96;100285.84;255149;1100;114321;-82
2021/05/10 20:55:44;;;;;;;5.13;3.00;;;;;;;19.74;45.63;100296.75;255008;1107;114684;-79
2021/05/10 21:00:46;;;;;;;4.75;3.10;;;;;;;19.70;46.13;100286.30;255110;1100;114752;-77
2021/05/10 21:05:48;;;;;;;4.20;2.53;;;;;;;19.56;45.97;100299.08;255180;1107;114357;-76
2021/05/10 21:10:50;;;;;;;3.95;2.50;;;;;;;19.44;46.19;100289.25;255167;1102;114595;-77
2021/05/10 21:15:52;;;;;;;4.23;2.83;;;;;;;19.43;46.77;100292.93;255108;1107;114618;-78
2021/05/10 21:20:55;;;;;;;5.50;3.08;;;;;;;19.37;47.02;100285.31;255075;1107;114230;-78
2021/05/10 21:25:57;;;;;;;2.73;2.40;;;;;;;19.38;47.01;100284.33;255175;1106;114613;-76
2021/05/10 21:31:03;;;;;;;4.38;2.60;;;;;;;19.23;47.13;100287.26;255229;1100;114513;-75
2021/05/10 21:36:05;;;;;;;;;;;;;;;19.19;47.38;100291.16;255198;1107;114430;-77
2021/05/10 21:41:07;;;;;;;4.83;3.10;;;;;;;19.09;47.69;100284.77;255845;1100;103166;-75
2021/05/10 21:46:09;;;;;;;4.20;3.00;;;;;;;18.93;48.43;100294.05;255205;1107;114291;-76
2021/05/10 21:51:12;;;;;;;5.20;2.85;;;;;;;18.91;48.36;100297.82;255196;1099;114571;-76
2021/05/10 21:56:14;;;;;;;4.07;3.13;;;;;;;18.93;49.31;100285.07;255504;1100;114301;-75
2021/05/10 22:01:17;;;;;;;4.68;2.88;;;;;;;18.75;48.87;100287.31;255846;1104;114205;-75
2021/05/10 22:06:19;;;;;;;4.48;3.28;;;;;;;18.54;49.89;100285.26;255526;1100;114279;-75
2021/05/10 22:11:22;;;;;;;4.20;3.60;;;;;;;18.46;50.28;100282.30;255406;1107;114750;-75
2021/05/10 22:16:28;;;;;;;4.77;3.23;;;;;;;18.35;50.39;100288.50;256016;1104;114885;-76
2021/05/10 22:21:31;;;;;;;3.60;3.30;;;;;;;18.36;50.81;100286.65;256130;1099;114359;-80
2021/05/10 22:32:08;;;;;;;3.10;2.73;;;;;;;18.15;51.48;100287.27;254776;1100;114412;-74
2021/05/10 22:37:11;;;;;;;3.40;2.68;;;;;;;18.17;51.52;100274.54;254504;1106;114266;-76
2021/05/10 22:42:17;;;;;;;6.48;3.48;;;;;;;17.87;52.15;100281.16;254699;1100;114255;-79
2021/05/10 23:18:49;;;;;;;5.00;2.80;;;;;;;17.56;53.90;100282.51;255347;1099;114249;-77
2021/05/10 23:23:51;;;;;;;4.13;3.00;;;;;;;17.54;53.90;100279.93;254936;1107;114276;-76
2021/05/10 23:28:54;;;;;;;3.20;2.90;;;;;;;17.51;53.06;100285.53;254967;1100;114265;-75
2021/05/10 23:33:56;;;;;;;6.50;2.93;;;;;;;17.44;53.08;100273.45;254599;1100;114500;-74
2021/05/10 23:38:58;;;;;;;3.88;3.58;;;;;;;17.43;53.29;100279.81;254991;1106;114178;-76
2021/05/10 23:44:00;;;;;;;4.23;2.85;;;;;;;17.42;52.87;100281.66;255077;1100;114581;-73
2021/05/10 23:49:03;;;;;;;4.48;3.28;;;;;;;17.33;53.13;100277.79;255048;1100;114554;-77
2021/05/10 23:54:05;;;;;;;3.08;2.80;;;;;;;17.46;53.46;100277.77;255215;1100;114734;-75
2021/05/10 23:59:07;;;;;;;4.23;2.65;;;;;;;17.28;53.26;100269.14;254929;1100;118081;-76
